createdAt,value
2023-01-06T00:01:24.598Z,95.30
2023-01-06T00:03:53.691Z,95.40
2023-01-06T00:06:27.999Z,95.30
2023-01-06T00:08:56.176Z,95.40
2023-01-06T00:11:24.562Z,95.40
2023-01-06T00:13:56.433Z,95.40
2023-01-06T00:16:24.735Z,95.20
2023-01-06T00:18:59.590Z,95.30
2023-01-06T00:21:27.819Z,95.50
2023-01-06T00:23:55.706Z,95.30
2023-01-06T00:26:23.779Z,95.30
2023-01-06T00:28:55.652Z,95.30
2023-01-06T00:31:23.688Z,95.40
2023-01-06T00:33:51.637Z,95.50
2023-01-06T00:36:21.835Z,95.70
2023-01-06T00:38:50.538Z,95.60
2023-01-06T00:41:38.255Z,95.50
2023-01-06T00:44:06.871Z,95.80
2023-01-06T00:46:34.908Z,95.90
2023-01-06T00:49:06.333Z,95.80
2023-01-06T00:51:39.295Z,95.90
2023-01-06T00:54:08.266Z,96.20
2023-01-06T00:56:47.496Z,96.20
2023-01-06T00:59:16.388Z,96.50
2023-01-06T01:01:45.164Z,96.30
2023-01-06T01:04:14.426Z,96.20
2023-01-06T01:06:46.312Z,96.30
2023-01-06T01:09:15.384Z,96.50
2023-01-06T01:12:01.840Z,96.40
2023-01-06T01:14:30.456Z,96.40
2023-01-06T01:16:58.501Z,96.40
2023-01-06T01:19:27.240Z,96.50
2023-01-06T01:21:55.180Z,96.50
2023-01-06T01:24:23.346Z,96.90
2023-01-06T01:26:51.307Z,97.90
2023-01-06T01:29:19.593Z,98.40
2023-01-06T01:31:47.775Z,99.00
2023-01-06T01:34:16.832Z,99.00
2023-01-06T01:36:45.815Z,99.40
2023-01-06T01:39:15.253Z,99.70
2023-01-06T01:41:43.317Z,99.90
2023-01-06T01:44:29.998Z,99.90
2023-01-06T01:46:58.282Z,99.90
2023-01-06T01:49:27.067Z,99.90
2023-01-06T01:51:56.614Z,99.90
2023-01-06T01:54:28.933Z,99.90
2023-01-06T01:57:04.110Z,99.90
2023-01-06T01:59:34.101Z,99.90
2023-01-06T02:02:02.466Z,99.90
2023-01-06T02:04:33.593Z,99.90
2023-01-06T02:07:03.282Z,99.90
2023-01-06T02:09:51.915Z,99.90
2023-01-06T02:12:19.916Z,99.90
2023-01-06T02:14:47.858Z,99.90
2023-01-06T02:17:18.910Z,99.90
2023-01-06T02:20:05.531Z,99.90
2023-01-06T02:22:45.915Z,99.90
2023-01-06T02:25:13.968Z,99.90
2023-01-06T02:28:08.473Z,99.90
2023-01-06T02:30:47.085Z,99.90
2023-01-06T02:33:28.200Z,99.90
2023-01-06T02:36:08.528Z,99.90
2023-01-06T02:38:36.612Z,99.90
2023-01-06T02:41:08.695Z,99.90
2023-01-06T02:43:46.901Z,99.90
2023-01-06T02:46:15.651Z,99.90
2023-01-06T02:48:59.376Z,99.90
2023-01-06T02:51:39.792Z,99.90
2023-01-06T02:54:14.801Z,99.90
2023-01-06T02:56:47.338Z,99.90
2023-01-06T02:59:20.013Z,99.90
2023-01-06T03:01:50.656Z,99.90
2023-01-06T03:04:31.246Z,99.90
2023-01-06T03:07:02.822Z,99.90
2023-01-06T03:09:33.904Z,99.90
2023-01-06T03:12:08.771Z,99.90
2023-01-06T03:14:42.094Z,99.90
2023-01-06T03:17:10.035Z,99.90
2023-01-06T03:19:38.200Z,99.90
2023-01-06T03:22:07.581Z,99.90
2023-01-06T03:24:36.351Z,99.90
2023-01-06T03:27:05.687Z,99.90
2023-01-06T03:29:35.547Z,99.90
2023-01-06T03:32:09.539Z,99.90
2023-01-06T03:34:45.067Z,99.90
2023-01-06T03:37:20.453Z,99.90
2023-01-06T03:39:49.240Z,99.90
2023-01-06T03:42:54.620Z,99.90
2023-01-06T03:45:39.383Z,99.90
2023-01-06T03:48:26.364Z,99.90
2023-01-06T03:51:12.994Z,99.90
2023-01-06T03:53:59.701Z,99.90
2023-01-06T03:56:36.813Z,99.90
2023-01-06T03:59:09.901Z,99.90
2023-01-06T04:01:40.422Z,99.90
2023-01-06T04:04:08.418Z,99.90
2023-01-06T04:06:37.451Z,99.90
2023-01-06T04:09:06.719Z,99.90
2023-01-06T04:11:55.990Z,99.90
2023-01-06T04:14:24.783Z,99.90
2023-01-06T04:16:53.854Z,99.90
2023-01-06T04:19:22.401Z,99.90
2023-01-06T04:21:50.262Z,99.90
2023-01-06T04:24:19.112Z,99.90
2023-01-06T04:26:48.008Z,99.90
2023-01-06T04:29:15.973Z,99.90
2023-01-06T04:31:44.068Z,99.90
2023-01-06T04:34:12.225Z,99.90
2023-01-06T04:36:40.899Z,99.90
2023-01-06T04:39:08.929Z,99.90
2023-01-06T04:41:36.920Z,99.90
2023-01-06T04:44:04.862Z,99.90
2023-01-06T04:46:32.886Z,99.90
2023-01-06T04:49:00.809Z,99.90
2023-01-06T04:51:30.765Z,99.90
2023-01-06T04:53:58.735Z,99.90
2023-01-06T04:56:26.996Z,99.90
2023-01-06T04:58:56.107Z,99.90
2023-01-06T05:01:24.799Z,99.90
2023-01-06T05:03:52.882Z,99.90
2023-01-06T05:06:22.058Z,99.90
2023-01-06T05:08:50.178Z,99.90
2023-01-06T05:11:19.440Z,99.90
2023-01-06T05:13:47.430Z,99.90
2023-01-06T05:16:17.588Z,99.90
2023-01-06T05:18:45.932Z,99.90
2023-01-06T05:21:13.874Z,99.90
2023-01-06T05:23:43.723Z,99.90
2023-01-06T05:26:16.611Z,99.90
2023-01-06T05:28:44.602Z,99.90
2023-01-06T05:31:12.614Z,99.90
2023-01-06T05:33:40.660Z,99.90
2023-01-06T05:36:13.121Z,99.90
2023-01-06T05:38:41.604Z,99.90
2023-01-06T05:41:09.469Z,99.90
2023-01-06T05:43:38.088Z,99.90
2023-01-06T05:46:09.978Z,99.90
2023-01-06T05:48:38.769Z,99.90
2023-01-06T05:51:08.317Z,99.90
2023-01-06T05:53:37.629Z,99.90
2023-01-06T05:56:06.836Z,99.90
2023-01-06T05:58:35.004Z,99.90
2023-01-06T06:01:03.932Z,99.90
2023-01-06T06:03:32.482Z,99.90
2023-01-06T06:06:04.147Z,99.90
2023-01-06T06:08:32.162Z,99.90
2023-01-06T06:11:07.008Z,99.90
2023-01-06T06:13:34.917Z,99.90
2023-01-06T06:16:06.141Z,99.90
2023-01-06T06:18:34.326Z,99.90
2023-01-06T06:21:05.470Z,99.90
2023-01-06T06:23:33.483Z,99.90
2023-01-06T06:26:01.469Z,99.90
2023-01-06T06:28:33.707Z,99.90
2023-01-06T06:31:10.622Z,99.90
2023-01-06T06:33:38.814Z,99.90
2023-01-06T06:36:10.204Z,99.90
2023-01-06T06:38:38.915Z,99.90
2023-01-06T06:41:06.956Z,99.90
2023-01-06T06:43:35.076Z,99.90
2023-01-06T06:46:03.269Z,99.90
2023-01-06T06:48:31.220Z,99.90
2023-01-06T06:51:03.227Z,99.90
2023-01-06T06:53:33.113Z,99.90
2023-01-06T06:56:01.449Z,99.90
2023-01-06T06:58:29.524Z,99.90
2023-01-06T07:00:57.534Z,98.80
2023-01-06T07:03:25.822Z,97.10
2023-01-06T07:05:54.056Z,95.80
2023-01-06T07:08:22.107Z,94.40
2023-01-06T07:10:53.028Z,93.40
2023-01-06T07:13:20.942Z,92.50
2023-01-06T07:15:48.943Z,92.10
2023-01-06T07:18:16.964Z,91.80
2023-01-06T07:20:49.987Z,91.40
2023-01-06T07:23:18.016Z,91.40
2023-01-06T07:25:45.950Z,91.30
2023-01-06T07:28:13.849Z,91.50
2023-01-06T07:30:41.846Z,91.10
2023-01-06T07:33:09.845Z,90.90
2023-01-06T07:35:37.930Z,90.70
2023-01-06T07:38:06.715Z,90.30
2023-01-06T07:40:35.348Z,90.10
2023-01-06T07:43:04.069Z,89.60
2023-01-06T07:45:32.172Z,89.20
2023-01-06T07:48:00.056Z,88.80
2023-01-06T07:50:28.536Z,88.10
2023-01-06T07:53:00.132Z,87.40
2023-01-06T07:55:28.341Z,87.00
2023-01-06T07:57:56.563Z,86.00
2023-01-06T08:00:24.578Z,85.10
2023-01-06T08:02:52.718Z,84.10
2023-01-06T08:05:20.966Z,82.90
2023-01-06T08:07:48.928Z,81.50
2023-01-06T08:10:16.996Z,80.30
2023-01-06T08:12:44.916Z,78.90
2023-01-06T08:15:13.004Z,77.70
2023-01-06T08:17:40.861Z,76.20
2023-01-06T08:20:09.169Z,74.80
2023-01-06T08:22:36.989Z,73.30
2023-01-06T08:25:05.122Z,72.00
2023-01-06T08:27:32.976Z,70.80
2023-01-06T08:30:00.889Z,70.20
2023-01-06T08:32:28.955Z,68.00
2023-01-06T08:34:56.988Z,66.80
2023-01-06T08:37:24.949Z,65.90
2023-01-06T08:39:53.124Z,64.60
2023-01-06T08:42:21.269Z,62.80
2023-01-06T08:44:49.339Z,58.20
2023-01-06T08:47:17.261Z,54.80
2023-01-06T08:49:45.144Z,56.80
2023-01-06T08:52:13.103Z,54.40
2023-01-06T08:54:41.049Z,54.20
2023-01-06T08:57:09.551Z,50.20
2023-01-06T08:59:37.521Z,53.30
2023-01-06T09:02:05.634Z,48.90
2023-01-06T09:04:33.872Z,49.10
2023-01-06T09:07:02.122Z,48.60
2023-01-06T09:09:30.003Z,47.50
2023-01-06T09:11:58.409Z,47.40
2023-01-06T09:14:26.376Z,43.70
2023-01-06T09:16:54.651Z,44.60
2023-01-06T09:19:22.632Z,46.10
2023-01-06T09:21:50.546Z,42.60
2023-01-06T09:24:18.385Z,42.40
2023-01-06T09:26:46.578Z,41.80
2023-01-06T09:29:14.532Z,42.30
2023-01-06T09:31:42.384Z,40.60
2023-01-06T09:34:10.335Z,39.70
2023-01-06T09:36:38.281Z,40.00
2023-01-06T09:39:06.180Z,38.60
2023-01-06T09:41:53.967Z,39.20
2023-01-06T09:44:32.736Z,38.80
2023-01-06T09:47:01.649Z,38.30
2023-01-06T09:49:48.243Z,37.90
2023-01-06T09:52:28.314Z,38.90
2023-01-06T09:55:12.879Z,37.10
2023-01-06T09:57:46.698Z,36.30
2023-01-06T10:00:33.659Z,35.80
2023-01-06T10:03:01.709Z,34.80
2023-01-06T10:05:38.916Z,35.10
2023-01-06T10:08:25.581Z,34.70
2023-01-06T10:10:59.981Z,32.90
2023-01-06T10:13:28.005Z,33.20
2023-01-06T10:16:01.869Z,33.10
2023-01-06T10:18:48.503Z,33.10
2023-01-06T10:21:31.184Z,32.70
2023-01-06T10:24:03.663Z,32.90
2023-01-06T10:26:50.962Z,32.10
2023-01-06T10:29:19.742Z,31.80
2023-01-06T10:31:48.759Z,30.90
2023-01-06T10:34:20.131Z,30.10
2023-01-06T10:36:52.163Z,30.00
2023-01-06T10:39:21.724Z,30.50
2023-01-06T10:41:52.859Z,29.90
2023-01-06T10:44:20.829Z,30.30
2023-01-06T10:46:50.456Z,30.10
2023-01-06T10:49:19.254Z,30.10
2023-01-06T10:51:55.569Z,30.30
2023-01-06T10:54:25.284Z,29.40
2023-01-06T10:56:55.662Z,30.00
2023-01-06T10:59:23.596Z,29.80
2023-01-06T11:01:57.516Z,29.40
2023-01-06T11:04:26.782Z,29.70
2023-01-06T11:06:56.118Z,28.70
2023-01-06T11:09:30.280Z,28.80
2023-01-06T11:11:59.715Z,29.10
2023-01-06T11:14:31.929Z,28.50
2023-01-06T11:17:03.946Z,28.60
2023-01-06T11:19:39.260Z,28.10
2023-01-06T11:22:27.224Z,28.50
2023-01-06T11:24:55.158Z,27.80
2023-01-06T11:27:23.125Z,27.80
2023-01-06T11:29:50.975Z,28.30
2023-01-06T11:32:23.694Z,27.50
2023-01-06T11:34:56.168Z,27.70
2023-01-06T11:37:31.265Z,27.60
2023-01-06T11:40:10.467Z,27.90
2023-01-06T11:45:34.829Z,27.80
2023-01-06T11:48:06.966Z,27.90
2023-01-06T11:50:35.132Z,28.40
2023-01-06T11:53:04.425Z,28.00
2023-01-06T11:55:32.408Z,28.20
2023-01-06T11:58:03.001Z,28.50
2023-01-06T12:00:39.827Z,28.20
2023-01-06T12:03:16.147Z,28.20
2023-01-06T12:06:02.404Z,29.30
2023-01-06T12:08:39.381Z,29.50
2023-01-06T12:11:16.367Z,29.60
2023-01-06T12:14:00.492Z,30.00
2023-01-06T12:16:40.491Z,29.60
2023-01-06T12:19:16.769Z,29.10
2023-01-06T12:21:44.759Z,29.40
2023-01-06T12:24:15.907Z,29.20
2023-01-06T12:26:44.433Z,29.50
2023-01-06T12:29:16.469Z,29.10
2023-01-06T12:31:44.359Z,29.10
2023-01-06T12:34:21.620Z,28.90
2023-01-06T12:36:55.674Z,29.20
2023-01-06T12:39:27.238Z,29.60
2023-01-06T12:41:58.515Z,28.60
2023-01-06T12:44:42.182Z,29.40
2023-01-06T12:47:22.508Z,29.20
2023-01-06T12:49:53.690Z,29.40
2023-01-06T12:52:47.932Z,29.60
2023-01-06T12:55:17.464Z,29.50
2023-01-06T12:58:12.912Z,29.50
2023-01-06T13:00:40.879Z,29.20
2023-01-06T13:03:21.094Z,29.20
2023-01-06T13:06:01.401Z,29.20
2023-01-06T13:08:38.470Z,29.50
2023-01-06T13:11:24.789Z,29.30
2023-01-06T13:14:11.657Z,29.70
2023-01-06T13:16:42.783Z,29.90
2023-01-06T13:19:16.883Z,30.00
2023-01-06T13:21:46.034Z,30.00
2023-01-06T13:24:17.057Z,31.00
2023-01-06T13:27:00.075Z,33.00
2023-01-06T13:29:46.550Z,34.30
2023-01-06T13:32:50.090Z,34.70
2023-01-06T13:35:29.712Z,37.20
2023-01-06T13:37:57.744Z,39.80
2023-01-06T13:40:29.998Z,38.10
2023-01-06T13:43:01.273Z,38.30
2023-01-06T13:45:31.213Z,40.60
2023-01-06T13:48:00.993Z,41.90
2023-01-06T13:50:29.127Z,42.50
2023-01-06T13:52:57.091Z,43.20
2023-01-06T13:55:27.383Z,43.70
2023-01-06T13:57:55.636Z,44.30
2023-01-06T14:00:27.844Z,44.90
2023-01-06T14:03:00.341Z,45.60
2023-01-06T14:05:31.292Z,46.50
2023-01-06T14:08:00.744Z,47.30
2023-01-06T14:10:33.794Z,48.30
2023-01-06T14:13:02.931Z,49.70
2023-01-06T14:15:35.509Z,50.10
2023-01-06T14:18:04.026Z,50.30
2023-01-06T14:20:31.905Z,51.10
2023-01-06T14:23:02.944Z,51.80
2023-01-06T14:25:33.715Z,52.60
2023-01-06T14:28:01.637Z,53.30
2023-01-06T14:30:33.931Z,53.60
2023-01-06T14:33:03.578Z,54.30
2023-01-06T14:35:44.660Z,54.80
2023-01-06T14:38:33.365Z,55.30
2023-01-06T14:41:03.714Z,55.60
2023-01-06T14:43:38.234Z,56.00
2023-01-06T14:46:09.180Z,56.60
2023-01-06T14:48:41.009Z,57.00
2023-01-06T14:51:12.766Z,57.50
2023-01-06T14:53:43.738Z,58.00
2023-01-06T14:56:22.614Z,58.50
2023-01-06T14:58:50.507Z,59.10
2023-01-06T15:01:26.969Z,59.40
2023-01-06T15:03:56.982Z,59.90
2023-01-06T15:06:25.622Z,60.30
2023-01-06T15:08:53.837Z,60.80
2023-01-06T15:11:29.132Z,61.20
2023-01-06T15:13:57.166Z,62.10
2023-01-06T15:16:41.172Z,62.20
2023-01-06T15:19:15.550Z,62.80
2023-01-06T15:21:44.740Z,63.10
2023-01-06T15:24:20.669Z,63.90
2023-01-06T15:26:49.639Z,64.10
2023-01-06T15:29:18.905Z,64.40
2023-01-06T15:31:47.817Z,64.50
2023-01-06T15:34:20.512Z,65.30
2023-01-06T15:36:49.933Z,65.80
2023-01-06T15:39:22.376Z,66.40
2023-01-06T15:41:50.546Z,67.00
2023-01-06T15:44:31.954Z,67.40
2023-01-06T15:46:59.912Z,67.50
2023-01-06T15:49:48.966Z,67.90
2023-01-06T15:52:37.068Z,68.30
2023-01-06T15:55:18.610Z,68.80
2023-01-06T15:57:51.446Z,68.50
2023-01-06T16:00:21.359Z,69.00
2023-01-06T16:02:49.730Z,69.20
2023-01-06T16:05:36.399Z,69.50
2023-01-06T16:08:05.179Z,69.70
2023-01-06T16:10:37.392Z,70.10
2023-01-06T16:13:14.494Z,70.40
2023-01-06T16:15:50.153Z,70.40
2023-01-06T16:18:27.116Z,70.50
2023-01-06T16:20:55.746Z,70.80
2023-01-06T16:23:27.367Z,71.50
2023-01-06T16:26:05.818Z,71.40
2023-01-06T16:28:34.057Z,71.80
2023-01-06T16:31:06.196Z,72.20
2023-01-06T16:33:35.741Z,72.80
2023-01-06T16:36:12.261Z,73.00
2023-01-06T16:38:40.536Z,73.30
2023-01-06T16:41:13.052Z,73.50
2023-01-06T16:43:41.013Z,74.30
2023-01-06T16:46:11.902Z,74.20
2023-01-06T16:48:39.979Z,74.40
2023-01-06T16:51:12.437Z,74.70
2023-01-06T16:53:40.427Z,75.10
2023-01-06T16:56:15.013Z,75.40
2023-01-06T16:58:42.976Z,75.90
2023-01-06T17:01:18.958Z,76.00
2023-01-06T17:03:56.940Z,76.10
2023-01-06T17:06:28.197Z,76.00
2023-01-06T17:08:59.240Z,76.20
2023-01-06T17:11:28.455Z,76.30
2023-01-06T17:13:58.464Z,76.60
2023-01-06T17:16:31.537Z,76.60
2023-01-06T17:19:01.044Z,77.10
2023-01-06T17:21:39.235Z,77.10
2023-01-06T17:24:16.666Z,77.80
2023-01-06T17:26:52.973Z,77.70
2023-01-06T17:29:21.498Z,77.30
2023-01-06T17:31:53.346Z,78.00
2023-01-06T17:34:24.621Z,78.60
2023-01-06T17:36:53.792Z,78.30
2023-01-06T17:39:23.128Z,77.50
2023-01-06T17:41:57.580Z,78.20
2023-01-06T17:44:32.220Z,78.20
2023-01-06T17:47:00.087Z,78.10
2023-01-06T17:49:33.715Z,78.60
2023-01-06T17:52:16.105Z,78.40
2023-01-06T17:55:07.924Z,78.60
2023-01-06T17:57:36.111Z,77.60
2023-01-06T18:00:15.662Z,78.00
2023-01-06T18:02:46.818Z,78.00
2023-01-06T18:05:21.047Z,78.00
2023-01-06T18:07:49.154Z,78.60
2023-01-06T18:10:18.274Z,78.50
2023-01-06T18:12:46.772Z,79.00
2023-01-06T18:15:26.836Z,79.20
2023-01-06T18:17:56.234Z,79.00
2023-01-06T18:20:24.167Z,79.10
2023-01-06T18:22:52.240Z,79.40
2023-01-06T18:25:24.535Z,79.30
2023-01-06T18:27:52.459Z,79.80
2023-01-06T18:30:22.865Z,79.40
2023-01-06T18:32:51.864Z,79.50
2023-01-06T18:35:21.729Z,79.30
2023-01-06T18:37:50.222Z,79.40
2023-01-06T18:40:20.713Z,79.50
2023-01-06T18:42:51.733Z,79.70
2023-01-06T18:45:27.272Z,79.40
2023-01-06T18:48:13.803Z,79.70
2023-01-06T18:50:43.950Z,80.00
2023-01-06T18:53:15.116Z,79.70
2023-01-06T18:55:55.243Z,80.10
2023-01-06T18:58:39.372Z,79.70
2023-01-06T19:01:25.922Z,80.00
2023-01-06T19:04:03.119Z,79.90
2023-01-06T19:06:51.524Z,80.40
2023-01-06T19:09:25.402Z,80.70
2023-01-06T19:12:17.425Z,80.70
2023-01-06T19:14:50.284Z,81.40
2023-01-06T19:17:21.966Z,81.90
2023-01-06T19:19:52.149Z,82.60
2023-01-06T19:22:34.530Z,82.90
2023-01-06T19:25:04.601Z,82.80
2023-01-06T19:27:34.407Z,83.20
2023-01-06T19:30:20.029Z,84.00
2023-01-06T19:32:47.989Z,84.50
2023-01-06T19:35:19.056Z,84.70
2023-01-06T19:37:47.057Z,84.90
2023-01-06T19:40:23.839Z,85.10
2023-01-06T19:42:51.924Z,85.30
2023-01-06T19:45:31.220Z,85.50
2023-01-06T19:48:00.153Z,86.00
2023-01-06T19:50:28.294Z,86.40
2023-01-06T19:52:58.573Z,86.20
2023-01-06T19:55:28.227Z,86.50
2023-01-06T19:58:02.614Z,87.10
2023-01-06T20:00:36.505Z,87.00
2023-01-06T20:03:04.991Z,87.10
2023-01-06T20:05:32.963Z,87.40
2023-01-06T20:08:00.862Z,87.80
2023-01-06T20:10:28.924Z,87.90
2023-01-06T20:12:56.831Z,88.30
2023-01-06T20:15:24.850Z,88.50
2023-01-06T20:17:52.941Z,88.60
2023-01-06T20:20:20.923Z,88.60
2023-01-06T20:22:48.839Z,88.40
2023-01-06T20:25:16.868Z,88.40
2023-01-06T20:27:44.842Z,88.80
2023-01-06T20:30:12.847Z,88.30
2023-01-06T20:32:40.776Z,89.50
2023-01-06T20:35:09.756Z,89.50
2023-01-06T20:37:39.436Z,89.90
2023-01-06T20:40:07.712Z,89.60
2023-01-06T20:42:35.832Z,89.80
2023-01-06T20:45:03.991Z,90.00
2023-01-06T20:47:31.829Z,90.00
2023-01-06T20:49:59.744Z,90.20
2023-01-06T20:52:27.647Z,90.20
2023-01-06T20:54:55.594Z,90.50
2023-01-06T20:57:23.693Z,90.50
2023-01-06T20:59:51.621Z,90.50
2023-01-06T21:02:19.737Z,90.50
2023-01-06T21:04:47.975Z,90.90
2023-01-06T21:07:15.982Z,91.00
2023-01-06T21:09:43.865Z,90.90
2023-01-06T21:12:11.670Z,91.10
2023-01-06T21:14:39.656Z,91.30
2023-01-06T21:17:07.574Z,91.30
2023-01-06T21:19:35.545Z,91.30
2023-01-06T21:22:03.546Z,91.30
2023-01-06T21:24:31.558Z,91.50
2023-01-06T21:26:59.494Z,91.70
2023-01-06T21:29:27.503Z,92.00
2023-01-06T21:31:55.839Z,92.10
2023-01-06T21:34:23.866Z,92.30
2023-01-06T21:36:51.824Z,92.30
2023-01-06T21:39:19.823Z,92.60
2023-01-06T21:42:06.265Z,92.60
2023-01-06T21:44:34.265Z,92.60
2023-01-06T21:47:04.097Z,92.70
2023-01-06T21:49:32.014Z,92.80
2023-01-06T21:52:02.493Z,93.00
2023-01-06T21:54:30.607Z,93.00
2023-01-06T21:56:58.611Z,93.10
2023-01-06T21:59:26.686Z,93.30
2023-01-06T22:01:54.760Z,93.30
2023-01-06T22:04:22.785Z,93.50
2023-01-06T22:06:50.758Z,93.60
2023-01-06T22:09:21.561Z,93.60
2023-01-06T22:11:50.149Z,93.60
2023-01-06T22:14:18.414Z,93.50
2023-01-06T22:16:46.566Z,93.60
2023-01-06T22:19:15.408Z,93.80
2023-01-06T22:21:44.499Z,93.90
2023-01-06T22:24:14.000Z,94.00
2023-01-06T22:26:42.037Z,94.10
2023-01-06T22:29:10.040Z,94.30
2023-01-06T22:31:37.891Z,94.20
2023-01-06T22:34:07.128Z,94.40
2023-01-06T22:36:35.032Z,94.60
2023-01-06T22:39:03.007Z,94.60
2023-01-06T22:41:30.902Z,94.60
2023-01-06T22:43:58.917Z,94.80
2023-01-06T22:46:27.801Z,94.90
2023-01-06T22:48:55.705Z,94.90
2023-01-06T22:51:23.759Z,94.90
2023-01-06T22:53:52.219Z,95.10
2023-01-06T22:56:20.571Z,95.00
2023-01-06T22:58:48.453Z,95.10
2023-01-06T23:01:16.592Z,95.20
2023-01-06T23:03:44.690Z,95.40
2023-01-06T23:06:13.840Z,95.40
2023-01-06T23:08:51.036Z,95.50
2023-01-06T23:11:28.376Z,95.50
2023-01-06T23:13:57.525Z,95.70
2023-01-06T23:16:27.081Z,96.00
2023-01-06T23:18:55.181Z,95.80
2023-01-06T23:21:23.881Z,95.70
2023-01-06T23:23:52.538Z,96.00
2023-01-06T23:26:21.755Z,96.00
2023-01-06T23:28:49.879Z,96.10
2023-01-06T23:31:18.948Z,96.30
2023-01-06T23:33:48.496Z,96.40
2023-01-06T23:36:17.025Z,96.40
2023-01-06T23:38:45.305Z,96.50
2023-01-06T23:41:14.753Z,96.60
2023-01-06T23:43:43.041Z,96.60
2023-01-06T23:46:15.440Z,96.70
2023-01-06T23:48:43.847Z,96.70
2023-01-06T23:51:12.307Z,96.90
2023-01-06T23:53:40.351Z,96.90
2023-01-06T23:56:28.579Z,97.00
2023-01-06T23:58:58.512Z,97.00
